Latest Weather Observations for Wattamolla

IDN60801

Issued at 10:04 pm EDT Friday 27 February 2015 (issued every 30 minutes, with the page automatically refreshed every 10 minutes)

About weather observations | Map of weather stations | Latest weather observations for NSW | Other Formats
Station Details ID: 066208 Name: WATTAMOLLA AWS Lat: -34.14 Lon: 151.12 Height: 44.0 m
Data from the previous 72 hours. | See also: Recent months for locations in New South Wales
Date/Time
EDT
Temp
°C
App
Temp
°C
Dew
Point
Rel
Hum
%
Delta-T
°C
Wind Press
QNH
hPa
Press
MSL
hPa
Rain
since 9 am
mm
Dir
 
Spd
km/h
Gust
km/h
Spd
kts
Gust
kts
27/10:00pm - - - - - N 9 11 5 6 - - -
27/09:30pm - - - - - NNE 9 13 5 7 - - -
27/09:00pm - - - - - NNE 11 13 6 7 - - -
27/08:30pm - - - - - N 7 9 4 5 - - -
27/08:00pm - - - - - NNE 9 11 5 6 - - -
27/07:30pm - - - - - ENE 9 13 5 7 - - -
27/07:00pm - - - - - ENE 9 11 5 6 - - -
27/06:30pm - - - - - ENE 9 11 5 6 - - -
27/06:00pm - - - - - ESE 7 11 4 6 - - -
27/05:30pm - - - - - SE 9 11 5 6 - - -
27/05:00pm - - - - - SE 17 19 9 10 - - -
27/04:30pm - - - - - SSE 13 17 7 9 - - -
27/04:00pm - - - - - SSE 13 15 7 8 - - -
27/03:30pm - - - - - SSE 15 17 8 9 - - -
27/03:00pm - - - - - S 17 19 9 10 - - -
27/02:30pm - - - - - S 15 19 8 10 - - -
27/02:00pm - - - - - S 17 20 9 11 - - -
27/01:30pm - - - - - S 17 20 9 11 - - -
27/01:00pm - - - - - S 15 17 8 9 - - -
27/12:30pm - - - - - S 17 19 9 10 - - -
27/12:00pm - - - - - S 15 17 8 9 - - -
27/11:30am - - - - - S 13 15 7 8 - - -
27/11:00am - - - - - SSE 15 17 8 9 - - -
27/10:30am - - - - - S 15 17 8 9 - - -
27/10:00am - - - - - SSE 19 22 10 12 - - -
27/09:30am - - - - - SSE 28 32 15 17 - - -
27/09:00am - - - - - SSE 32 37 17 20 - - -
27/08:30am - - - - - SSE 28 33 15 18 - - -
27/08:00am - - - - - SSE 32 39 17 21 - - -
27/07:30am - - - - - SSE 33 41 18 22 - - -
27/07:00am - - - - - SSE 35 44 19 24 - - -
27/06:30am - - - - - SSE 32 39 17 21 - - -
27/06:00am - - - - - SSE 28 35 15 19 - - -
27/05:00am - - - - - S 39 41 21 22 - - -
27/04:30am - - - - - S 37 41 20 22 - - -
27/04:00am - - - - - S 37 41 20 22 - - -
27/03:30am - - - - - S 37 43 20 23 - - -
27/03:00am - - - - - S 32 41 17 22 - - -
27/02:30am - - - - - S 33 41 18 22 - - -
27/02:00am - - - - - S 24 32 13 17 - - -
27/01:30am - - - - - - - - - - - - -
27/01:00am - - - - - SSW 13 24 7 13 - - -
27/12:30am - - - - - WSW 13 17 7 9 - - -
27/12:00am - - - - - SW 13 19 7 10 - - -
 
Date/Time
EDT
Temp
°C
App
Temp
°C
Dew
Point
Rel
Hum
%
Delta-T
°C
Wind Press
QNH
hPa
Press
MSL
hPa
Rain
since 9 am
mm
Dir
 
Spd
km/h
Gust
km/h
Spd
kts
Gust
kts
26/11:30pm - - - - - SW 11 15 6 8 - - -
26/11:00pm - - - - - WSW 4 7 2 4 - - -
26/10:30pm - - - - - NW 11 13 6 7 - - -
26/10:00pm - - - - - NNW 13 15 7 8 - - -
26/09:30pm - - - - - W 7 13 4 7 - - -
26/09:00pm - - - - - W 9 13 5 7 - - -
26/08:30pm - - - - - WNW 11 17 6 9 - - -
26/08:00pm - - - - - SW 2 9 1 5 - - -
26/07:30pm - - - - - NNE 17 28 9 15 - - -
26/07:00pm - - - - - N 13 15 7 8 - - -
26/06:30pm - - - - - N 9 11 5 6 - - -
26/06:00pm - - - - - NNE 6 11 3 6 - - -
26/05:30pm - - - - - NE 13 20 7 11 - - -
26/05:00pm - - - - - NE 15 24 8 13 - - -
26/04:30pm - - - - - NE 17 24 9 13 - - -
26/04:00pm - - - - - - - - - - - - -
26/03:30pm - - - - - NE 17 22 9 12 - - -
26/03:00pm - - - - - NE 17 24 9 13 - - -
26/02:30pm - - - - - NE 15 20 8 11 - - -
26/02:00pm - - - - - ENE 15 22 8 12 - - -
26/01:30pm - - - - - ENE 13 19 7 10 - - -
26/01:00pm - - - - - NNW 9 15 5 8 - - -
26/12:30pm - - - - - NNW 11 19 6 10 - - -
26/12:00pm - - - - - N 13 19 7 10 - - -
26/11:30am - - - - - N 11 20 6 11 - - -
26/11:00am - - - - - NE 6 11 3 6 - - -
26/10:30am - - - - - NE 9 13 5 7 - - -
26/10:00am - - - - - NNE 4 9 2 5 - - -
26/09:30am - - - - - NNW 6 11 3 6 - - -
26/09:00am - - - - - NNW 7 9 4 5 - - -
26/08:30am - - - - - NW 11 13 6 7 - - -
26/08:00am - - - - - NW 11 13 6 7 - - -
26/07:30am - - - - - NW 11 13 6 7 - - -
26/07:00am - - - - - NW 11 13 6 7 - - -
26/06:30am - - - - - NW 9 11 5 6 - - -
26/06:00am - - - - - NW 9 11 5 6 - - -
26/05:30am - - - - - ENE 11 19 6 10 - - -
26/05:00am - - - - - SSE 15 19 8 10 - - -
26/04:30am - - - - - SSE 19 22 10 12 - - -
26/04:00am - - - - - S 22 26 12 14 - - -
26/03:30am - - - - - S 20 26 11 14 - - -
26/03:00am - - - - - S 20 26 11 14 - - -
26/02:30am - - - - - S 13 19 7 10 - - -
26/02:00am - - - - - SSW 9 13 5 7 - - -
26/01:30am - - - - - S 13 20 7 11 - - -
26/01:00am - - - - - S 13 19 7 10 - - -
26/12:30am - - - - - SW 11 15 6 8 - - -
26/12:00am - - - - - S 13 17 7 9 - - -
 
Date/Time
EDT
Temp
°C
App
Temp
°C
Dew
Point
Rel
Hum
%
Delta-T
°C
Wind Press
QNH
hPa
Press
MSL
hPa
Rain
since 9 am
mm
Dir
 
Spd
km/h
Gust
km/h
Spd
kts
Gust
kts
25/11:30pm - - - - - S 17 20 9 11 - - -
25/11:00pm - - - - - S 13 19 7 10 - - -
25/10:30pm - - - - - SSE 17 22 9 12 - - -
25/10:00pm - - - - - S 19 26 10 14 - - -
25/09:30pm - - - - - SSE 20 28 11 15 - - -
25/09:00pm - - - - - SSE 28 33 15 18 - - -
25/08:30pm - - - - - SSE 28 33 15 18 - - -
25/08:00pm - - - - - SSE 28 35 15 19 - - -
25/07:30pm - - - - - S 26 35 14 19 - - -
25/07:00pm - - - - - SSE 24 32 13 17 - - -
25/06:30pm - - - - - S 28 35 15 19 - - -
25/06:00pm - - - - - SSE 28 39 15 21 - - -
25/05:30pm - - - - - S 39 48 21 26 - - -
25/05:00pm - - - - - SSE 39 52 21 28 - - -
25/04:30pm - - - - - S 33 48 18 26 - - -
25/04:00pm - - - - - S 35 41 19 22 - - -
25/03:30pm - - - - - SSE 33 43 18 23 - - -
25/03:00pm - - - - - SSE 32 41 17 22 - - -
25/02:30pm - - - - - SSE 43 52 23 28 - - -
25/02:00pm - - - - - S 43 54 23 29 - - -
25/01:30pm - - - - - S 43 50 23 27 - - -
25/01:00pm - - - - - S 44 56 24 30 - - -
25/12:30pm - - - - - S 54 61 29 33 - - -
25/12:00pm - - - - - S 48 57 26 31 - - -
25/11:30am - - - - - SSE 39 52 21 28 - - -
25/11:00am - - - - - SSE 39 52 21 28 - - -
25/10:30am - - - - - SSE 39 50 21 27 - - -
25/10:00am - - - - - SSE 43 54 23 29 - - -
25/09:30am - - - - - S 41 54 22 29 - - -
25/09:00am - - - - - SSE 46 57 25 31 - - -
25/08:38am - - - - - SE 28 52 15 28 - - -
25/08:30am - - - - - ESE 17 28 9 15 - - -
25/08:00am - - - - - SE 32 39 17 21 - - -
25/07:30am - - - - - SE 37 48 20 26 - - -
25/07:13am - - - - - S 28 41 15 22 - - -
25/07:00am - - - - - S 39 52 21 28 - - -
25/06:53am - - - - - S 28 50 15 27 - - -
25/06:30am - - - - - SSW 17 28 9 15 - - -
25/06:00am - - - - - S 19 33 10 18 - - -
25/05:30am - - - - - S 17 26 9 14 - - -
25/05:00am - - - - - S 19 33 10 18 - - -
25/04:30am - - - - - S 22 32 12 17 - - -
25/04:00am - - - - - S 17 26 9 14 - - -
25/03:30am - - - - - S 32 37 17 20 - - -
25/03:00am - - - - - S 15 22 8 12 - - -
25/02:30am - - - - - S 26 33 14 18 - - -
25/02:00am - - - - - S 30 39 16 21 - - -
25/01:30am - - - - - S 26 37 14 20 - - -
25/01:00am - - - - - SSW 39 43 21 23 - - -
25/12:30am - - - - - S 41 46 22 25 - - -
25/12:00am - - - - - S 43 48 23 26 - - -
 
Date/Time
EDT
Temp
°C
App
Temp
°C
Dew
Point
Rel
Hum
%
Delta-T
°C
Wind Press
QNH
hPa
Press
MSL
hPa
Rain
since 9 am
mm
Dir
 
Spd
km/h
Gust
km/h
Spd
kts
Gust
kts
24/11:30pm - - - - - S 43 50 23 27 - - -
24/11:00pm - - - - - S 46 54 25 29 - - -
24/10:30pm - - - - - S 50 54 27 29 - - -

Other Formats:

Comma delimited format used in spreadsheet applications
http://www.bom.gov.au/fwo/IDN60801/IDN60801.95752.axf

JavaScript Object Notation format (JSON) in row-major order
http://www.bom.gov.au/fwo/IDN60801/IDN60801.95752.json